CheckWX is a tool to help pilots better visualize weather data.  It is not intended as a substitute for an official pre-flight weather briefing.

23:34:24 UTC

KHDN METAR
Yampa Valley Airport
Hayden, Colorado, USA
Current

38 mins ago

KHDN 182256Z AUTO 25009KT 10SM BKN050 07/M04 A2998 RMK AO2 SLP134 T00721039
Observed
Oct-18 @ 22:56 UTC
Wind
  • 250° at 9 KTS
Visibility
10 SM
Flight Rules
VFR
Cloud Levels
  • Broken at 5,000' AGL
Temperature
C / 45°F
Dewpoint
-4°C / 25°F
Humidity
46%
Altimeter
29.98" Hg
Pressure
1015.22 hPa
Previous

2 hours ago

KHDN 182156Z AUTO 26005KT 10SM SCT046 06/M04 A2998 RMK AO2 SLP131 T00561039
Observed
Oct-18 @ 21:56 UTC
Wind
  • 260° at 5 KTS
Visibility
10 SM
Flight Rules
VFR
Cloud Levels
  • Scattered at 4,600' AGL
Temperature
C / 43°F
Dewpoint
-4°C / 25°F
Humidity
49%
Altimeter
29.98" Hg
Pressure
1015.22 hPa
Previous

3 hours ago

KHDN 182056Z AUTO 28006KT 10SM CLR 05/M03 A2997 RMK AO2 SLP117 T00501033 53001
Observed
Oct-18 @ 20:56 UTC
Wind
  • 280° at 6 KTS
Visibility
10 SM
Flight Rules
VFR
Cloud Levels
  • Clear skies
Temperature
C / 41°F
Dewpoint
-3°C / 27°F
Humidity
57%
Altimeter
29.97" Hg
Pressure
1014.92 hPa